Tiempo atmosférico en la estación meteorológica de Lubia, Soria (1100 m.)



Fecha
DESCASC
Temp. máxima en grados centígrados (hora)
DESCASC
Temp. mínima en grados centígrados (hora)
DESCASC
Temp. media en grados centígrados
DESCASC
Racha de viento máxima en m/sg (hora)
DESCASC
Velocidad máxima media en intervalos de 10 minutos(hora)
DESCASC
Precipitaciones diarias en mm
DESCASC
Precipitaciones de 00:00 a 06:00 en mm
DESCASC
Precipitaciones de 06:00 a 12:00 en mm
DESCASC
Precipitaciones de 12:00 a 18:00 en mm
DESCASC
Precipitaciones de 18:00 a 24:00 en mm
DESCASC
22-01-2020 5.5 (14:40) 0.2 (01:00) 2.9 8.61 (01:50) 5 (01:40) 2 2 0 0 0
21-01-2020 2.5 (11:20) -2.3 (00:00) 0.1 14.44 (19:30) 8.61 (19:10) 6.8 0 0 2.4 4.4
20-01-2020 4.1 (15:20) -3.2 (08:40) 0.4 15.83 (07:30) 8.89 (08:00) 0 0 0 0 0
19-01-2020 4.5 (14:40) -2.1 (-00:0) 1.2 23.33 (15:00) 13.33 (14:30) 0.4 0 0.4 0 0
18-01-2020 4.9 (18:20) -1.8 (-00:0) 1.6 16.39 (20:20) 10.28 (20:20) 4.2 0 0 0 4.2
17-01-2020 9 (14:20) -2.2 (-00:0) 3.4 15 (14:40) 8.61 (15:00) 2.2 1.2 1 0 0
16-01-2020 10.2 (15:20) 2.5 (00:00) 6.3 12.78 (15:50) 7.5 (16:50) 0 0 0 0 0
15-01-2020 8.2 (14:10) -1.4 (-00:0) 3.4 9.44 (12:50) 5.83 (12:50) 0 0 0 0 0
14-01-2020 6.4 (16:20) -2.4 (-00:0) 2 8.89 (02:50) 5.56 (09:50) 0 0 0 0 0
13-01-2020 9.5 (13:20) -4.6 (-00:0) 2.5 9.72 (15:40) 6.94 (13:50) 0 0 0 0 0
12-01-2020 10.1 (15:30) -5.8 (01:20) 2.2 6.11 (11:30) 4.17 (16:30) 0 0 0 0 0
11-01-2020 9.3 (14:00) -5.6 (-00:0) 1.9 7.5 (00:20) 5 (14:40) 0 0 0 0 0
10-01-2020 8.1 (14:30) -1.3 (-00:0) 3.4 10.83 (15:50) 5.28 (15:50) 0.2 0.2 0 0 0
09-01-2020 11.3 (15:00) -1.2 (-00:0) 5.1 10.83 (14:10) 7.22 (14:30) 0.2 0 0 0 0.2
08-01-2020 14.6 (12:20) -0.2 (00:00) 7.2 6.67 (02:50) 4.72 (08:00) 0 0 0 0 0
07-01-2020 14.6 (14:00) -4.2 (-00:0) 5.2 7.22 (15:00) 4.72 (15:00) 0 0 0 0 0
06-01-2020 13.6 (15:30) -2.8 (-00:0) 5.4 7.5 (15:50) 4.72 (14:10) 0 0 0 0 0
05-01-2020 14.6 (13:00) -4.2 (-00:0) 5.2 4.72 (13:40) 3.61 (13:40) 0 0 0 0 0
04-01-2020 9.8 (15:40) -1.6 (-00:0) 4.1 4.44 (16:20) 3.33 (16:20) 0 0 0 0 0
03-01-2020 4.3 (00:00) -1 (-00:0) 1.7 8.89 (13:50) 6.39 (13:50) 0 0 0 0 0
02-01-2020 15.2 (13:20) -2 (-00:0) 6.6 6.67 (15:30) 4.44 (14:20) -- 0 0 -- 0
01-01-2020 15.8 (14:30) -3 (-00:0) 6.4 7.78 (15:30) 5 (15:10) 0 0 0 0 0
31-12-2019 17 (14:10) -0.3 (00:00) 8.3 4.72 (19:00) 3.61 (18:50) 0 0 0 0 0
30-12-2019 -- (--) -- (--) -- -- (--) -- (--) -- 0 0 0 --
29-12-2019 19.6 (15:20) -2 (-00:0) 8.8 3.89 (18:30) 2.78 (19:00) 0 0 0 0 0
28-12-2019 21.5 (14:20) -1.6 (-00:0) 9.9 5 (09:20) 3.61 (09:20) 0 0 0 0 0
27-12-2019 17 (15:50) -3.6 (-00:0) 6.7 3.06 (15:10) 1.94 (23:40) 0 0 0 0 0
26-12-2019 13.1 (14:00) -0.9 (-00:0) 6.1 11.11 (05:00) 7.22 (04:20) 0 0 0 0 0
25-12-2019 18.4 (14:20) 1.3 (00:00) 9.8 5.83 (15:10) 3.89 (15:10) 0 0 0 0 0
24-12-2019 13.7 (15:00) 3 (23:10) 8.3 10.28 (01:00) 6.67 (00:50) 0 0 0 0 0

Gráficas

Temp. máximas Temp. mínimas Temp. medias Precipitaciones Rachas de viento máximas Velocidades máximas media en intervalos de 10 minutos

Datos horarios

Fecha y hora oficial Temperatura (ºC) Velocidad del viento (km/h) Dirección del viento Racha (km/h) Dirección de racha Precipitación (mm) Presión (hPa) Tendencia (hPa) Humedad (%)
2020-01-22 23:00:00 1.9 6 Sudeste 13 Este 0 -- -- 100
2020-01-22 22:00:00 2 9 Este 17 Este 0 -- -- 100
2020-01-22 21:00:00 2.1 11 Este 21 Este 0 -- -- 100
2020-01-22 20:00:00 2.3 8 Este 15 Este 0 -- -- 100
2020-01-22 19:00:00 2.9 7 Este 22 Este 0 -- -- 99
2020-01-22 18:00:00 3.7 12 Este 20 Este 0 -- -- 96
2020-01-22 17:00:00 3.9 6 Este 17 Este 0 -- -- 92
2020-01-22 16:00:00 4.2 14 Este 23 Este 0 -- -- 93
2020-01-22 15:00:00 5.3 15 Este 22 Este 0 -- -- 89
2020-01-22 14:00:00 4.7 14 Este 21 Este 0 -- -- 90
2020-01-22 13:00:00 3.7 12 Este 22 Este 0 -- -- 100
2020-01-22 12:00:00 2.5 12 Este 16 Nordeste 0 -- -- 100
2020-01-22 11:00:00 2.1 11 Este 23 Este 0 -- -- 100
2020-01-22 10:00:00 1.9 10 Este 19 Este 0 -- -- 100
2020-01-22 09:00:00 1.5 12 Este 20 Este 0 -- -- 100
2020-01-22 08:00:00 1 14 Este 22 Este 0 -- -- 100
2020-01-22 07:00:00 0.8 14 Este 22 Este 0 -- -- 100
2020-01-22 06:00:00 0.6 12 Nordeste 24 Este 0 -- -- 100
2020-01-22 05:00:00 0.6 9 Nordeste 19 Nordeste 0 -- -- 100
2020-01-22 04:00:00 0.5 8 Nordeste 23 Nordeste 0 -- -- 100
2020-01-22 03:00:00 0.4 16 Este 30 Nordeste 0.2 -- -- 100
2020-01-22 02:00:00 0.6 15 Nordeste 31 Nordeste 0.6 -- -- 100
2020-01-22 01:00:00 0.2 16 Nordeste 27 Este 1.2 -- -- 100
2020-01-22 00:00:00 1.3 13 Nordeste 28 Nordeste 0.8 -- -- 100
2020-01-21 23:00:00 1.3 15 Este 32 Nordeste 1 -- -- 100
2020-01-21 22:00:00 1.5 19 Nordeste 47 Nordeste 0.8 -- -- 100
2020-01-21 21:00:00 2.2 24 Nordeste 45 Nordeste 0.4 -- -- 100
2020-01-21 20:00:00 2.2 30 Nordeste 52 Nordeste 1 -- -- 99
2020-01-21 19:00:00 2.2 28 Nordeste 47 Nordeste 0.4 -- -- 97
2020-01-21 18:00:00 1.8 22 Nordeste 37 Nordeste 0.4 -- -- 100
2020-01-21 17:00:00 1.7 20 Nordeste 42 Nordeste 0.6 -- -- 98
2020-01-21 16:00:00 2 26 Nordeste 45 Nordeste 0 -- -- 97
2020-01-21 15:00:00 1.5 19 Nordeste 50 Nordeste 0.4 -- -- 100
2020-01-21 14:00:00 1 21 Nordeste 42 Nordeste 0.8 -- -- 99
2020-01-21 13:00:00 1.1 20 Nordeste 41 Nordeste 0.2 -- -- 95
2020-01-21 12:00:00 1.8 25 Nordeste 46 Norte 0 -- -- 90
2020-01-21 11:00:00 1.9 18 Nordeste 32 Nordeste 0 -- -- 94
2020-01-21 10:00:00 0.8 17 Nordeste 34 Nordeste 0 -- -- 98
2020-01-21 09:00:00 0 19 Nordeste 40 Nordeste 0 -- -- 99
2020-01-21 08:00:00 0.4 27 Nordeste 49 Nordeste 0 -- -- 93
2020-01-21 07:00:00 1.3 28 Nordeste 45 Nordeste 0 -- -- 83
2020-01-21 06:00:00 1.2 21 Nordeste 41 Nordeste 0 -- -- 86
2020-01-21 05:00:00 0.5 18 Nordeste 33 Nordeste 0 -- -- 88
2020-01-21 04:00:00 0.4 10 Nordeste 35 Nordeste 0 -- -- 81
2020-01-21 03:00:00 0.4 23 Nordeste 39 Nordeste 0 -- -- 74
2020-01-21 02:00:00 -0.8 11 Nordeste 32 Nordeste 0 -- -- 70
2020-01-21 01:00:00 -1.8 19 Nordeste 31 Nordeste 0 -- -- 73
2020-01-21 00:00:00 -2.3 14 Este 30 Este 0 -- -- 75
2020-01-20 23:00:00 -2.4 15 Nordeste 30 Este 0 -- -- 74
2020-01-20 22:00:00 -1.3 19 Este 30 Nordeste 0 -- -- 74
2020-01-20 21:00:00 -0.3 17 Nordeste 37 Nordeste 0 -- -- 63
2020-01-20 20:00:00 -0.3 21 Nordeste 40 Nordeste 0 -- -- 58
2020-01-20 19:00:00 -0.4 21 Nordeste 35 Nordeste 0 -- -- 59
2020-01-20 18:00:00 0 17 Nordeste 35 Nordeste 0 -- -- 57
2020-01-20 17:00:00 1.6 21 Nordeste 43 Nordeste 0 -- -- 50
2020-01-20 16:00:00 2.8 16 Nordeste 38 Nordeste 0 -- -- 45
2020-01-20 15:00:00 3.9 19 Nordeste 43 Nordeste 0 -- -- 44
2020-01-20 14:00:00 2.2 26 Nordeste 45 Nordeste 0 -- -- 44
2020-01-20 13:00:00 2.8 21 Nordeste 42 Nordeste 0 -- -- 42
2020-01-20 12:00:00 -0.7 20 Norte 42 Norte 0 -- -- 53
2020-01-20 11:00:00 -1.6 24 Nordeste 46 Nordeste 0 -- -- 54
2020-01-20 10:00:00 -2.3 20 Nordeste 44 Nordeste 0 -- -- 53
2020-01-20 09:00:00 -3.2 25 Norte 50 Nordeste 0 -- -- 58
2020-01-20 08:00:00 -2.9 32 Norte 57 Norte 0 -- -- 55
2020-01-20 07:00:00 -2.5 25 Norte 50 Nordeste 0 -- -- 51
2020-01-20 06:00:00 -2.8 28 Norte 52 Nordeste 0 -- -- 54
2020-01-20 05:00:00 -3.1 24 Norte 50 Nordeste 0 -- -- 59
2020-01-20 04:00:00 -2.6 27 Nordeste 54 Norte 0 -- -- 57
2020-01-20 03:00:00 -2.7 23 Norte 52 Norte 0 -- -- 59
2020-01-20 02:00:00 -2.7 25 Norte 54 Nordeste 0 -- -- 62
2020-01-20 01:00:00 -2.4 26 Nordeste 53 Nordeste 0 -- -- 60
2020-01-20 00:00:00 -2.1 30 Norte 75 Norte 0 -- -- 61
2020-01-19 23:00:00 -2.1 32 Norte 68 Nordeste 0 -- -- 64
2020-01-19 22:00:00 -1.7 36 Norte 64 Norte 0 -- -- 62
2020-01-19 21:00:00 -1.3 35 Norte 75 Norte 0 -- -- 60
2020-01-19 20:00:00 -0.8 39 Norte 71 Norte 0 -- -- 57
2020-01-19 19:00:00 -0.8 35 Norte 65 Norte 0 -- -- 60
2020-01-19 18:00:00 0 32 Norte 70 Norte 0 -- -- 56
2020-01-19 17:00:00 1.8 39 Norte 73 Norte 0 -- -- 52
2020-01-19 16:00:00 2.9 32 Norte 81 Norte 0 -- -- 49
2020-01-19 15:00:00 4 46 Norte 84 Norte 0 -- -- 41
2020-01-19 14:00:00 3.9 40 Norte 70 Nordeste 0 -- -- 46
2020-01-19 13:00:00 2.7 40 Norte 71 Nordeste 0 -- -- 50
2020-01-19 12:00:00 3.5 38 Norte 70 Nordeste 0 -- -- 61
2020-01-19 11:00:00 2.6 41 Norte 74 Norte 0 -- -- 60
2020-01-19 10:00:00 1.5 35 Norte 63 Norte 0 -- -- 74
2020-01-19 09:00:00 1.6 34 Norte 63 Norte 0 -- -- 88
2020-01-19 08:00:00 1.7 22 Norte 39 Norte 0.2 -- -- 100
2020-01-19 07:00:00 0.2 6 Norte 13 Noroeste 0.2 -- -- 100
2020-01-19 06:00:00 0.5 8 Oeste 12 Oeste 0 -- -- 100
2020-01-19 05:00:00 0.3 8 Oeste 12 Oeste 0 -- -- 100
2020-01-19 04:00:00 -0.1 4 Noroeste 11 Noroeste 0 -- -- 100
2020-01-19 03:00:00 -0.3 5 Noroeste 9 Noroeste 0 -- -- 100
2020-01-19 02:00:00 0.9 4 Nordeste 10 Oeste 0 -- -- 100
2020-01-19 01:00:00 1.9 2 Oeste 8 Noroeste 0 -- -- 100
2020-01-19 00:00:00 2.3 4 Noroeste 17 Noroeste 0.2 -- -- 100
2020-01-18 23:00:00 2.2 4 Oeste 18 Oeste 0 -- -- 100
2020-01-18 22:00:00 2.1 12 Sudoeste 24 Sudoeste 0 -- -- 100
2020-01-18 21:00:00 2.3 15 Sudoeste 59 Oeste 3.8 -- -- 100
2020-01-18 20:00:00 4.2 17 Sur 29 Sur 0.2 -- -- 100
2020-01-18 19:00:00 4.8 15 Sudoeste 42 Sudoeste 0 -- -- 97
2020-01-18 18:00:00 4.8 22 Sudoeste 35 Sudoeste 0 -- -- 97
2020-01-18 17:00:00 4.6 19 Sudoeste 40 Sudoeste 0 -- -- 100
2020-01-18 16:00:00 4.5 20 Sudoeste 42 Sur 0 -- -- 99
2020-01-18 15:00:00 4.4 19 Sudoeste 34 Sudoeste 0 -- -- 98
2020-01-18 14:00:00 4.2 16 Sudoeste 33 Sudoeste 0 -- -- 100
2020-01-18 13:00:00 4 15 Sudoeste 35 Sudoeste 0 -- -- 99
2020-01-18 12:00:00 4.3 18 Sur 31 Sudoeste 0 -- -- 94
2020-01-18 11:00:00 3.5 15 Sudoeste 27 Sudoeste 0 -- -- 97
2020-01-18 10:00:00 2.3 5 Sudoeste 13 Sur 0 -- -- 100
2020-01-18 09:00:00 0.1 9 Sur 13 Sur 0 -- -- 99
2020-01-18 08:00:00 -0.5 0 Calma 7 Noroeste 0 -- -- 100
2020-01-18 07:00:00 -0.5 6 Noroeste 17 Sudoeste 0 -- -- 98
2020-01-18 06:00:00 0.4 6 Sur 13 Sur 0 -- -- 95
2020-01-18 05:00:00 0.1 8 Sudoeste 12 Sudoeste 0 -- -- 97
2020-01-18 04:00:00 -0.2 9 Sudoeste 14 Sudoeste 0 -- -- 96
2020-01-18 03:00:00 -1.5 3 Nordeste 7 Oeste 0 -- -- 100
2020-01-18 02:00:00 -0.1 8 Sudoeste 15 Sudoeste 0 -- -- 95
2020-01-18 01:00:00 -0.4 10 Sudoeste 16 Sudoeste 0 -- -- 100
2020-01-18 00:00:00 -1.6 9 Sur 11 Sur 0 -- -- 100
2020-01-17 23:00:00 -1.5 5 Oeste 9 Sudoeste 0 -- -- 100
2020-01-17 22:00:00 -0.1 7 Oeste 14 Oeste 0 -- -- 94
2020-01-17 21:00:00 1.9 8 Oeste 21 Oeste 0 -- -- 89
2020-01-17 20:00:00 2.7 14 Oeste 22 Oeste 0 -- -- 85
2020-01-17 19:00:00 3.3 14 Oeste 24 Oeste 0 -- -- 80
2020-01-17 18:00:00 4.4 17 Oeste 31 Oeste 0 -- -- 73
2020-01-17 17:00:00 5.9 23 Oeste 41 Oeste 0 -- -- 67
2020-01-17 16:00:00 6.6 22 Oeste 42 Oeste 0 -- -- 65
2020-01-17 15:00:00 7.7 31 Oeste 54 Oeste 0 -- -- 65
2020-01-17 14:00:00 8 26 Oeste 47 Oeste 0 -- -- 70
2020-01-17 13:00:00 6.1 28 Oeste 48 Oeste 0 -- -- 84
2020-01-17 12:00:00 5.3 22 Oeste 43 Oeste 0.2 -- -- 95
2020-01-17 11:00:00 4.2 26 Oeste 40 Oeste 0.2 -- -- 100
2020-01-17 10:00:00 3.6 18 Oeste 32 Oeste 0.2 -- -- 100
2020-01-17 09:00:00 3.4 21 Oeste 37 Oeste 0.4 -- -- 100
2020-01-17 08:00:00 3.2 20 Oeste 32 Oeste 0 -- -- 100
2020-01-17 07:00:00 2.5 9 Sudoeste 13 Sudoeste 0 -- -- 100
2020-01-17 06:00:00 2.1 6 Sudoeste 12 Sudoeste 0 -- -- 100
2020-01-17 05:00:00 2.9 10 Sudoeste 20 Oeste 0 -- -- 100
2020-01-17 04:00:00 3.7 14 Sudoeste 26 Sudoeste 0 -- -- 98
2020-01-17 03:00:00 4.3 14 Sudoeste 24 Sudoeste 0 -- -- 97
2020-01-17 02:00:00 4.5 9 Sudoeste 30 Sudoeste 0.8 -- -- 100
2020-01-17 01:00:00 4.9 7 Sudoeste 26 Sudoeste 0.4 -- -- 97
2020-01-17 00:00:00 6 18 Sudoeste 27 Sudoeste 0 -- -- 88
2020-01-16 23:00:00 4.3 10 Sur 19 Sur 0 -- -- 100
2020-01-16 22:00:00 4.2 10 Sur 18 Sur 0 -- -- 100
2020-01-16 21:00:00 3.9 9 Sur 18 Sur 0 -- -- 100
2020-01-16 20:00:00 5.1 14 Sur 25 Sur 0 -- -- 91
2020-01-16 19:00:00 5.5 17 Sur 32 Sudoeste 0 -- -- 87
2020-01-16 18:00:00 6.1 14 Sur 39 Sudoeste 0 -- -- 84
2020-01-16 17:00:00 7.7 26 Sudoeste 43 Sudoeste 0 -- -- 83
2020-01-16 16:00:00 8.3 22 Sudoeste 46 Sudoeste 0 -- -- 83
2020-01-16 15:00:00 10 23 Sur 39 Sur 0 -- -- 76
2020-01-16 14:00:00 9.3 16 Sudoeste 36 Sudoeste 0 -- -- 82
2020-01-16 13:00:00 9.1 18 Sudoeste 39 Sur 0 -- -- 84
2020-01-16 12:00:00 7.7 12 Sur 25 Sudoeste 0 -- -- 100
2020-01-16 11:00:00 5.9 13 Sur 28 Sur 0 -- -- 100
2020-01-16 10:00:00 5.4 13 Sur 27 Sur 0 -- -- 100
2020-01-16 09:00:00 5.2 8 Sur 17 Sur 0 -- -- 100
2020-01-16 08:00:00 4.9 10 Sudoeste 20 Sudoeste 0 -- -- 100
2020-01-16 07:00:00 4.3 13 Sur 19 Sur 0 -- -- 100
2020-01-16 06:00:00 2.7 10 Sur 19 Sur 0 -- -- 100
2020-01-16 05:00:00 3.6 14 Sur 23 Sudoeste 0 -- -- 100
2020-01-16 04:00:00 3.1 12 Sur 19 Sur 0 -- -- 100
2020-01-16 03:00:00 2.9 12 Sur 17 Sur 0 -- -- 100
2020-01-16 02:00:00 2.8 10 Sudoeste 19 Sur 0 -- -- 100
2020-01-16 01:00:00 2.9 13 Sur 18 Sur 0 -- -- 100
2020-01-16 00:00:00 3.2 11 Sur 15 Sur 0 -- -- 100
2020-01-15 23:00:00 2.6 10 Sur 15 Sur 0 -- -- 100
2020-01-15 22:00:00 2.2 10 Sudoeste 15 Sudoeste 0 -- -- 100
2020-01-15 21:00:00 2.4 10 Sudoeste 18 Sudoeste 0 -- -- 99
2020-01-15 20:00:00 2.6 13 Sudoeste 21 Sudoeste 0 -- -- 97
2020-01-15 19:00:00 3.8 11 Sur 18 Sudoeste 0 -- -- 90
2020-01-15 18:00:00 5 13 Sudoeste 25 Sudoeste 0 -- -- 85
2020-01-15 17:00:00 6 11 Sudoeste 26 Sudoeste 0 -- -- 81
2020-01-15 16:00:00 6 19 Sudoeste 30 Sudoeste 0 -- -- 80
2020-01-15 15:00:00 6.9 17 Sur 28 Sur 0 -- -- 77
2020-01-15 14:00:00 7.6 16 Sudoeste 30 Sudoeste 0 -- -- 75
2020-01-15 13:00:00 6.7 19 Sur 34 Sudoeste 0 -- -- 79
2020-01-15 12:00:00 5.3 18 Sudoeste 28 Sur 0 -- -- 85
2020-01-15 11:00:00 4 13 Sudoeste 27 Sur 0 -- -- 90
2020-01-15 10:00:00 3 14 Sudoeste 31 Sur 0 -- -- 94
2020-01-15 09:00:00 1.7 13 Sur 22 Sudoeste 0 -- -- 100
2020-01-15 08:00:00 1 10 Sur 19 Sur 0 -- -- 100
2020-01-15 07:00:00 1.6 14 Sur 28 Sur 0 -- -- 100
2020-01-15 06:00:00 2.1 15 Sudoeste 31 Sudoeste 0 -- -- 99
2020-01-15 05:00:00 2 14 Sudoeste 24 Sudoeste 0 -- -- 99
2020-01-15 04:00:00 1.7 15 Sudoeste 25 Sudoeste 0 -- -- 100
2020-01-15 03:00:00 0.2 8 Sur 18 Sudoeste 0 -- -- 100
2020-01-15 02:00:00 -0.1 11 Sur 23 Sur 0 -- -- 97
2020-01-15 01:00:00 -1.1 11 Sur 17 Sur 0 -- -- 99
2020-01-15 00:00:00 -0.8 12 Sur 19 Sur 0 -- -- 95
2020-01-14 23:00:00 -0.9 10 Sudoeste 18 Sudoeste 0 -- -- 95
2020-01-14 22:00:00 -0.3 13 Sur 22 Sudoeste 0 -- -- 93
2020-01-14 21:00:00 -0.4 11 Sur 20 Sur 0 -- -- 89
2020-01-14 20:00:00 -0.2 10 Sudoeste 18 Sur 0 -- -- 88
2020-01-14 19:00:00 0.8 12 Sur 16 Sur 0 -- -- 84
2020-01-14 18:00:00 2.3 7 Sudoeste 15 Sudoeste 0 -- -- 79
2020-01-14 17:00:00 5.6 9 Sudoeste 24 Oeste 0 -- -- 67
2020-01-14 16:00:00 5.5 13 Sudoeste 24 Sudoeste 0 -- -- 67
2020-01-14 15:00:00 3.8 15 Oeste 27 Oeste 0 -- -- 75
2020-01-14 14:00:00 3.2 16 Oeste 27 Oeste 0 -- -- 76
2020-01-14 13:00:00 1.2 16 Oeste 28 Oeste 0 -- -- 85
2020-01-14 12:00:00 0.6 15 Oeste 24 Oeste 0 -- -- 89
2020-01-14 11:00:00 -0.5 16 Oeste 24 Oeste 0 -- -- 93
2020-01-14 10:00:00 -0.9 18 Oeste 32 Oeste 0 -- -- 94
2020-01-14 09:00:00 -1.7 14 Sudoeste 22 Sudoeste 0 -- -- 97
2020-01-14 08:00:00 -1.9 13 Sudoeste 18 Sudoeste 0 -- -- 96
2020-01-14 07:00:00 -0.8 11 Sudoeste 27 Oeste 0 -- -- 93
2020-01-14 06:00:00 -0.4 15 Oeste 28 Oeste 0 -- -- 92
2020-01-14 05:00:00 -1 15 Oeste 27 Oeste 0 -- -- 90
2020-01-14 04:00:00 -2.3 14 Oeste 25 Oeste 0 -- -- 89
2020-01-14 03:00:00 -0.4 19 Oeste 32 Oeste 0 -- -- 82
2020-01-14 02:00:00 -1.5 14 Oeste 24 Sudoeste 0 -- -- 92
2020-01-14 01:00:00 -1.1 14 Sudoeste 22 Sudoeste 0 -- -- 88
2020-01-14 00:00:00 -1.1 13 Sudoeste 22 Sudoeste 0 -- -- 88
2020-01-13 23:00:00 -1 12 Sudoeste 22 Sur 0 -- -- 86
2020-01-13 22:00:00 -0.3 14 Sudoeste 18 Sudoeste 0 -- -- 86
2020-01-13 21:00:00 -0.4 10 Sudoeste 14 Sudoeste 0 -- -- 86
2020-01-13 20:00:00 0.1 9 Sudoeste 16 Sudoeste 0 -- -- 80
2020-01-13 19:00:00 0.5 8 Sudoeste 15 Oeste 0 -- -- 76
2020-01-13 18:00:00 3.4 10 Sudoeste 24 Oeste 0 -- -- 64
2020-01-13 17:00:00 6.1 14 Oeste 25 Sudoeste 0 -- -- 54
2020-01-13 16:00:00 6.9 18 Oeste 35 Oeste 0 -- -- 46
2020-01-13 15:00:00 7.7 17 Oeste 29 Oeste 0 -- -- 45
2020-01-13 14:00:00 8.3 21 Oeste 35 Oeste 0 -- -- 42
2020-01-13 13:00:00 9 11 Sudoeste 19 Sudoeste 0 -- -- 46
2020-01-13 12:00:00 5.3 11 Sudoeste 18 Sudoeste 0 -- -- 66
2020-01-13 11:00:00 1.9 5 Oeste 8 Sudoeste 0 -- -- 92
2020-01-13 10:00:00 -0.8 0 Calma 6 Sudeste 0 -- -- 100
2020-01-13 09:00:00 -3 5 Sudeste 5 Sudeste 0 -- -- 100
2020-01-13 08:00:00 -3.7 3 Este 6 Sudeste 0 -- -- 100
2020-01-13 07:00:00 -3.4 6 Sudeste 7 Sudeste 0 -- -- 100
2020-01-13 06:00:00 -3 2 Este 6 Sudeste 0 -- -- 100
2020-01-13 05:00:00 -3.6 4 Sudeste 6 Sudeste 0 -- -- 100
2020-01-13 04:00:00 -2.7 0 Calma 5 Sudoeste 0 -- -- 100
2020-01-13 03:00:00 -2.7 3 Sudoeste 4 Sudeste 0 -- -- 100
2020-01-13 02:00:00 -3.9 0 Calma 5 Noroeste 0 -- -- 100
2020-01-13 01:00:00 -3 5 Noroeste 9 Noroeste 0 -- -- 100
2020-01-13 00:00:00 -2.3 6 Oeste 12 Oeste 0 -- -- 100
2020-01-12 23:00:00 -2.4 5 Sudoeste 10 Oeste 0 -- -- 100
2020-01-12 22:00:00 -1.9 5 Sudoeste 13 Sudoeste 0 -- -- 100
2020-01-12 21:00:00 -1.9 5 Oeste 8 Sudoeste 0 -- -- 94
2020-01-12 20:00:00 -1 4 Sur 12 Oeste 0 -- -- 85
2020-01-12 19:00:00 2.2 6 Noroeste 14 Noroeste 0 -- -- 75
2020-01-12 18:00:00 3.9 9 Oeste 16 Oeste 0 -- -- 70
2020-01-12 17:00:00 8.7 11 Oeste 21 Oeste 0 -- -- 57
2020-01-12 16:00:00 8 13 Oeste 21 Oeste 0 -- -- 63
2020-01-12 15:00:00 9.1 13 Oeste 22 Noroeste 0 -- -- 60
2020-01-12 14:00:00 8.5 13 Oeste 19 Oeste 0 -- -- 63
2020-01-12 13:00:00 6.5 13 Oeste 21 Noroeste 0 -- -- 67
2020-01-12 12:00:00 5.4 10 Noroeste 22 Oeste 0 -- -- 74
2020-01-12 11:00:00 2.7 10 Noroeste 18 Oeste 0 -- -- 80
2020-01-12 10:00:00 -0.1 9 Noroeste 17 Noroeste 0 -- -- 92
2020-01-12 09:00:00 -3.3 12 Oeste 20 Oeste 0 -- -- 100
2020-01-12 08:00:00 -4.4 6 Noroeste 11 Oeste 0 -- -- 100
2020-01-12 07:00:00 -3.7 9 Noroeste 17 Noroeste 0 -- -- 100
2020-01-12 06:00:00 -3.8 9 Noroeste 21 Noroeste 0 -- -- 100
2020-01-12 05:00:00 -3 10 Noroeste 19 Noroeste 0 -- -- 100
2020-01-12 04:00:00 -3.2 8 Noroeste 13 Oeste 0 -- -- 100
2020-01-12 03:00:00 -3.1 9 Noroeste 15 Noroeste 0 -- -- 100
2020-01-12 02:00:00 -5 8 Noroeste 10 Noroeste 0 -- -- 100
2020-01-12 01:00:00 -5.5 5 Noroeste 6 Norte 0 -- -- 97
2020-01-12 00:00:00 -4 2 Oeste 9 Oeste 0 -- -- 93
2020-01-11 23:00:00 -1.6 6 Oeste 18 Oeste 0 -- -- 76
2020-01-11 22:00:00 -0.2 9 Oeste 22 Oeste 0 -- -- 66
2020-01-11 21:00:00 0.8 9 Oeste 19 Oeste 0 -- -- 72
2020-01-11 20:00:00 1.6 11 Oeste 23 Oeste 0 -- -- 61
2020-01-11 19:00:00 1.9 13 Oeste 24 Oeste 0 -- -- 60
2020-01-11 18:00:00 3.3 9 Oeste 17 Oeste 0 -- -- 51
2020-01-11 17:00:00 8.6 10 Oeste 19 Oeste 0 -- -- 39
2020-01-11 16:00:00 9.2 12 Oeste 25 Oeste 0 -- -- 39
2020-01-11 15:00:00 8.9 15 Oeste 25 Oeste 0 -- -- 43
2020-01-11 14:00:00 9.3 11 Oeste 21 Sudoeste 0 -- -- 41
2020-01-11 13:00:00 7.9 12 Oeste 18 Oeste 0 -- -- 46
2020-01-11 12:00:00 7.5 8 Oeste 12 Noroeste 0 -- -- 47
2020-01-11 11:00:00 6.9 3 Oeste 6 Oeste 0 -- -- 54
2020-01-11 10:00:00 4.3 0 Calma 7 Noroeste 0 -- -- 64
2020-01-11 09:00:00 -4 5 Oeste 9 Oeste 0 -- -- 99
2020-01-11 08:00:00 -5 5 Oeste 12 Noroeste 0 -- -- 95
2020-01-11 07:00:00 -4.1 7 Oeste 13 Noroeste 0 -- -- 95
2020-01-11 06:00:00 -3.1 7 Oeste 14 Oeste 0 -- -- 95
2020-01-11 05:00:00 -3.9 4 Oeste 10 Noroeste 0 -- -- 93
2020-01-11 04:00:00 -1.4 6 Norte 12 Oeste 0 -- -- 83
2020-01-11 03:00:00 -3.2 6 Sur 12 Sudoeste 0 -- -- 92
2020-01-11 02:00:00 -0.1 5 Norte 18 Norte 0 -- -- 82
2020-01-11 01:00:00 0.4 12 Norte 27 Norte 0 -- -- 82
2020-01-11 00:00:00 0.9 10 Nordeste 29 Norte 0 -- -- 80
2020-01-10 23:00:00 2 14 Norte 25 Norte 0 -- -- 79
2020-01-10 22:00:00 1.7 14 Noroeste 27 Norte 0 -- -- 80
2020-01-10 21:00:00 1.3 10 Norte 28 Norte 0 -- -- 80
2020-01-10 20:00:00 2.3 14 Norte 21 Norte 0 -- -- 77
2020-01-10 19:00:00 2.4 9 Noroeste 22 Norte 0 -- -- 78
2020-01-10 18:00:00 3.6 12 Norte 28 Nordeste 0 -- -- 72
2020-01-10 17:00:00 6.6 10 Nordeste 30 Norte 0 -- -- 60
2020-01-10 16:00:00 7 19 Norte 39 Norte 0 -- -- 58
2020-01-10 15:00:00 6.4 18 Norte 36 Nordeste 0 -- -- 61
2020-01-10 14:00:00 6.3 16 Norte 31 Norte 0 -- -- 57
2020-01-10 13:00:00 7 13 Norte 28 Norte 0 -- -- 58
2020-01-10 12:00:00 6.4 11 Noroeste 30 Norte 0 -- -- 57
2020-01-10 11:00:00 5.1 12 Norte 29 Noroeste 0 -- -- 64
2020-01-10 10:00:00 4.1 10 Noroeste 22 Noroeste 0 -- -- 75
2020-01-10 09:00:00 1.7 13 Norte 20 Noroeste 0 -- -- 91
2020-01-10 08:00:00 1.5 8 Noroeste 15 Noroeste 0 -- -- 85
2020-01-10 07:00:00 -1.1 4 Sur 10 Oeste 0 -- -- 99
2020-01-10 06:00:00 1.2 4 Noroeste 15 Norte 0 -- -- 88
2020-01-10 05:00:00 1.8 5 Noroeste 13 Noroeste 0 -- -- 95
2020-01-10 04:00:00 1.8 11 Oeste 23 Oeste 0 -- -- 95
2020-01-10 03:00:00 2.1 17 Oeste 24 Oeste 0 -- -- 96
2020-01-10 02:00:00 3.4 14 Oeste 21 Oeste 0.2 -- -- 95
2020-01-10 01:00:00 3.8 13 Oeste 19 Oeste 0 -- -- 100
2020-01-10 00:00:00 5.5 13 Oeste 32 Oeste 0 -- -- 100
2020-01-09 23:00:00 6.5 21 Oeste 34 Oeste 0 -- -- 100
2020-01-09 22:00:00 6.4 17 Oeste 26 Sudoeste 0 -- -- 100
2020-01-09 21:00:00 6.6 11 Sudoeste 26 Oeste 0 -- -- 100
2020-01-09 20:00:00 6.5 15 Oeste 24 Noroeste 0.2 -- -- 100
2020-01-09 19:00:00 7 11 Oeste 22 Oeste 0 -- -- 90
2020-01-09 18:00:00 7.3 12 Oeste 28 Oeste 0 -- -- 86
2020-01-09 17:00:00 9.8 16 Oeste 29 Oeste 0 -- -- 75
2020-01-09 16:00:00 8.8 14 Oeste 33 Oeste 0 -- -- 77
2020-01-09 15:00:00 11.3 22 Oeste 39 Oeste 0 -- -- 66
2020-01-09 14:00:00 10.6 21 Oeste 39 Oeste 0 -- -- 65
2020-01-09 13:00:00 9.7 25 Oeste 33 Oeste 0 -- -- 63
2020-01-09 12:00:00 9.8 10 Sudoeste 17 Sudoeste 0 -- -- 65
2020-01-09 11:00:00 8.2 9 Oeste 15 Oeste 0 -- -- 67
2020-01-09 10:00:00 6.5 3 Sur 6 Sudeste 0 -- -- 73
2020-01-09 09:00:00 1.6 4 Sudoeste 13 Sur 0 -- -- 88
2020-01-09 08:00:00 -1 3 Noroeste 9 Sudoeste 0 -- -- 100
2020-01-09 07:00:00 1.7 6 Sudoeste 12 Sudoeste 0 -- -- 85
2020-01-09 06:00:00 0.9 8 Sur 13 Sur 0 -- -- 99
2020-01-09 05:00:00 -0.1 0 Calma 0 Calma 0 -- -- 100
2020-01-09 04:00:00 0.9 0 Calma -- -- 0 -- -- 100
2020-01-09 03:00:00 0.8 0 Calma 2 Este 0 -- -- 100
2020-01-09 02:00:00 1.3 0 Calma -- -- 0 -- -- 100
2020-01-09 01:00:00 1.6 0 Calma 2 Nordeste 0 -- -- 100
2020-01-09 00:00:00 1 0 Calma 5 Este 0 -- -- 100
2020-01-08 23:00:00 2.3 5 Este 6 Este 0 -- -- 99
2020-01-08 22:00:00 3.2 6 Sudeste 9 Sudeste 0 -- -- 90
2020-01-08 21:00:00 3.9 6 Sudeste 11 Sudeste 0 -- -- 89
2020-01-08 20:00:00 4.3 7 Este 9 Este 0 -- -- 88
2020-01-08 19:00:00 5.2 4 Sur 7 Sur 0 -- -- 81
2020-01-08 18:00:00 7.8 6 Sur 13 Sur 0 -- -- 70
2020-01-08 17:00:00 13.1 7 Sudeste 14 Este 0 -- -- 57
2020-01-08 16:00:00 13.7 9 Este 15 Este 0 -- -- 56
2020-01-08 15:00:00 13.7 9 Este 17 Nordeste 0 -- -- 59
2020-01-08 14:00:00 13 9 Este 18 Sudeste 0 -- -- 61
2020-01-08 13:00:00 13 7 Nordeste 11 Nordeste 0 -- -- 54
2020-01-08 12:00:00 13 3 Oeste 11 Sudoeste 0 -- -- 49
2020-01-08 11:00:00 10.3 0 Calma 6 Noroeste 0 -- -- 50
2020-01-08 10:00:00 7.3 4 Noroeste 18 Oeste 0 -- -- 55
2020-01-08 09:00:00 3.4 12 Oeste 21 Oeste 0 -- -- 63
2020-01-08 08:00:00 2.7 17 Oeste 21 Oeste 0 -- -- 64
2020-01-08 07:00:00 1.4 4 Oeste 20 Oeste 0 -- -- 69
2020-01-08 06:00:00 2.9 14 Oeste 21 Oeste 0 -- -- 63
2020-01-08 05:00:00 3 15 Oeste 21 Oeste 0 -- -- 58
2020-01-08 04:00:00 1 5 Noroeste 19 Noroeste 0 -- -- 67
2020-01-08 03:00:00 2.8 13 Oeste 24 Oeste 0 -- -- 59
2020-01-08 02:00:00 0 8 Oeste 14 Noroeste 0 -- -- 76
2020-01-08 01:00:00 2 6 Noroeste 14 Oeste 0 -- -- 70
2020-01-08 00:00:00 2.2 10 Noroeste 19 Oeste 0 -- -- 71
2020-01-07 23:00:00 1.2 11 Oeste 14 Oeste 0 -- -- 82
2020-01-07 22:00:00 2 8 Noroeste 14 Norte 0 -- -- 74
2020-01-07 21:00:00 4.5 13 Oeste 19 Oeste 0 -- -- 66
2020-01-07 20:00:00 5.3 13 Oeste 19 Oeste 0 -- -- 60
2020-01-07 19:00:00 4 9 Oeste 15 Oeste 0 -- -- 58
2020-01-07 18:00:00 6.7 12 Oeste 20 Oeste 0 -- -- 47
2020-01-07 17:00:00 11.5 13 Oeste 20 Oeste 0 -- -- 38
2020-01-07 16:00:00 13 15 Oeste 26 Oeste 0 -- -- 37
2020-01-07 15:00:00 12.7 17 Oeste 26 Oeste 0 -- -- 38
2020-01-07 14:00:00 14.6 8 Oeste 17 Oeste 0 -- -- 33
2020-01-07 13:00:00 12.8 10 Oeste 19 Oeste 0 -- -- 33
2020-01-07 12:00:00 10.9 12 Oeste 18 Oeste 0 -- -- 35
2020-01-07 11:00:00 10.8 10 Oeste 19 Oeste 0 -- -- 36
2020-01-07 10:00:00 5.8 10 Noroeste 17 Oeste 0 -- -- 49
2020-01-07 09:00:00 -1.4 9 Oeste 12 Oeste 0 -- -- 77
2020-01-07 08:00:00 -3.1 6 Noroeste 12 Noroeste 0 -- -- 86
2020-01-07 07:00:00 -3 3 Noroeste 12 Noroeste 0 -- -- 79
2020-01-07 06:00:00 -3 5 Oeste 8 Noroeste 0 -- -- 79
2020-01-07 05:00:00 -0.8 3 Sur 19 Noroeste 0 -- -- 70
2020-01-07 04:00:00 0.7 11 Noroeste 16 Noroeste 0 -- -- 65
2020-01-07 03:00:00 0.9 9 Oeste 13 Noroeste 0 -- -- 55
2020-01-07 02:00:00 1.4 11 Noroeste 17 Noroeste 0 -- -- 57
2020-01-07 01:00:00 0.5 6 Noroeste 9 Noroeste 0 -- -- 56
2020-01-07 00:00:00 0.2 8 Oeste 14 Oeste 0 -- -- 58
2020-01-06 23:00:00 1.4 6 Noroeste 15 Noroeste 0 -- -- 55
2020-01-06 22:00:00 0.8 4 Noroeste 16 Noroeste 0 -- -- 60
2020-01-06 21:00:00 5.5 10 Noroeste 20 Oeste 0 -- -- 42
2020-01-06 20:00:00 4.9 10 Noroeste 22 Oeste 0 -- -- 48
2020-01-06 19:00:00 5.9 12 Noroeste 21 Oeste 0 -- -- 47
2020-01-06 18:00:00 7.1 9 Oeste 20 Oeste 0 -- -- 46
2020-01-06 17:00:00 12.4 12 Oeste 24 Oeste 0 -- -- 37
2020-01-06 16:00:00 13.1 14 Oeste 27 Oeste 0 -- -- 38
2020-01-06 15:00:00 13.3 13 Oeste 24 Oeste 0 -- -- 36
2020-01-06 14:00:00 12.5 14 Oeste 26 Oeste 0 -- -- 36
2020-01-06 13:00:00 11.1 17 Oeste 23 Oeste 0 -- -- 40
2020-01-06 12:00:00 11 10 Sudoeste 15 Sudoeste 0 -- -- 48
2020-01-06 11:00:00 8.4 0 Calma 6 Sur 0 -- -- 69
2020-01-06 10:00:00 6.2 3 Sudeste 6 Sudeste 0 -- -- 89